KPAH/PAH METAR and TAF weather

Enter ICAO airport designator
Station Type Date Time Source
KPAH METAR 2021/01/17 18:53 UTC NOAA

KPAH 171853Z 27011KT 10SM BKN036 06/M03 A2984 RMK AO2 SLP107 T00611033


Station Type Date Time Source
KPAH Decoded METAR 2021/01/17 18:53 UTC NOAA

BARKLEY REGIONAL AIRPORT, KY, United States (KPAH) 37-03N 088-46W 118M
Jan 17, 2021 - 01:53 PM EST / 2021.01.17 1853 UTC
Wind: from the W (270 degrees) at 13 MPH (11 KT):0
Visibility: 10 mile(s):0
Sky conditions: mostly cloudy
Temperature: 43.0 F (6.1 C)
Dew Point: 26.1 F (-3.3 C)
Relative Humidity: 50%
Pressure (altimeter): 29.84 in. Hg (1010 hPa)
ob: KPAH 171853Z 27011KT 10SM BKN036 06/M03 A2984 RMK AO2 SLP107 T00611033
cycle: 19

Station Type Date Time Source
KPAH TAF 2021/01/17 18:22 UTC NOAA

TAF KPAH 171720Z 1718/1818 27009G16KT P6SM SCT025 BKN040
FM172300 27006KT P6SM VCSH BKN030
FM180300 27005KT P6SM BKN040
FM181300 26005KT P6SM SCT100

Example: see airport list